sensor_id;sensor_type;location;lat;lon;timestamp;pressure;altitude;pressure_sealevel;temperature;humidity
7264;BME280;3673;52.480;13.348;2023-02-11T00:01:21;102496.66;;;7.63;52.41
7264;BME280;3673;52.480;13.348;2023-02-11T00:03:48;102494.34;;;7.93;52.08
7264;BME280;3673;52.480;13.348;2023-02-11T00:06:15;102508.53;;;7.77;52.40
7264;BME280;3673;52.480;13.348;2023-02-11T00:08:42;102496.31;;;7.76;52.01
7264;BME280;3673;52.480;13.348;2023-02-11T00:11:12;102494.16;;;7.88;52.37
7264;BME280;3673;52.480;13.348;2023-02-11T00:13:42;102506.13;;;8.05;51.80
7264;BME280;3673;52.480;13.348;2023-02-11T00:16:11;102518.31;;;7.84;51.92
7264;BME280;3673;52.480;13.348;2023-02-11T00:18:38;102513.84;;;7.80;52.31
7264;BME280;3673;52.480;13.348;2023-02-11T00:21:06;102531.69;;;7.71;52.49
7264;BME280;3673;52.480;13.348;2023-02-11T00:23:34;102533.56;;;7.96;51.92
7264;BME280;3673;52.480;13.348;2023-02-11T00:26:01;102528.56;;;8.02;51.70
7264;BME280;3673;52.480;13.348;2023-02-11T00:28:28;102528.09;;;8.12;51.27
7264;BME280;3673;52.480;13.348;2023-02-11T00:30:57;102508.88;;;7.86;52.07
7264;BME280;3673;52.480;13.348;2023-02-11T00:33:24;102494.75;;;8.03;51.72
7264;BME280;3673;52.480;13.348;2023-02-11T00:35:50;102495.28;;;8.17;51.58
7264;BME280;3673;52.480;13.348;2023-02-11T00:38:17;102491.41;;;7.84;52.44
7264;BME280;3673;52.480;13.348;2023-02-11T00:40:44;102487.34;;;7.92;52.12
7264;BME280;3673;52.480;13.348;2023-02-11T00:43:10;102485.09;;;8.01;52.30
7264;BME280;3673;52.480;13.348;2023-02-11T00:45:37;102492.88;;;7.99;51.89
7264;BME280;3673;52.480;13.348;2023-02-11T00:48:05;102500.63;;;7.75;52.68
7264;BME280;3673;52.480;13.348;2023-02-11T00:50:32;102515.66;;;8.05;52.16
7264;BME280;3673;52.480;13.348;2023-02-11T00:52:59;102514.72;;;8.03;52.23
7264;BME280;3673;52.480;13.348;2023-02-11T00:55:25;102516.13;;;8.17;51.66
7264;BME280;3673;52.480;13.348;2023-02-11T00:57:52;102512.38;;;7.87;52.37
7264;BME280;3673;52.480;13.348;2023-02-11T01:00:19;102505.91;;;7.77;52.78
7264;BME280;3673;52.480;13.348;2023-02-11T01:02:46;102499.84;;;7.78;53.26
7264;BME280;3673;52.480;13.348;2023-02-11T01:05:14;102494.03;;;8.07;52.67
7264;BME280;3673;52.480;13.348;2023-02-11T01:07:41;102488.34;;;8.41;51.68
7264;BME280;3673;52.480;13.348;2023-02-11T01:10:08;102475.66;;;8.50;51.73
7264;BME280;3673;52.480;13.348;2023-02-11T01:12:35;102472.81;;;8.44;52.22
7264;BME280;3673;52.480;13.348;2023-02-11T01:15:03;102455.41;;;8.43;51.89
7264;BME280;3673;52.480;13.348;2023-02-11T01:17:30;102457.72;;;8.59;52.39
7264;BME280;3673;52.480;13.348;2023-02-11T01:19:57;102453.19;;;8.54;52.23
7264;BME280;3673;52.480;13.348;2023-02-11T01:22:25;102432.97;;;8.24;52.99
7264;BME280;3673;52.480;13.348;2023-02-11T01:24:52;102425.63;;;8.37;52.54
7264;BME280;3673;52.480;13.348;2023-02-11T01:27:18;102425.81;;;8.43;52.39
7264;BME280;3673;52.480;13.348;2023-02-11T01:29:45;102431.50;;;8.31;52.55
7264;BME280;3673;52.480;13.348;2023-02-11T01:32:12;102425.25;;;8.27;52.74
7264;BME280;3673;52.480;13.348;2023-02-11T01:34:38;102420.09;;;8.05;53.24
7264;BME280;3673;52.480;13.348;2023-02-11T01:37:05;102413.84;;;8.00;53.36
7264;BME280;3673;52.480;13.348;2023-02-11T01:39:34;102425.88;;;8.20;52.93
7264;BME280;3673;52.480;13.348;2023-02-11T01:42:01;102417.81;;;8.14;52.87
7264;BME280;3673;52.480;13.348;2023-02-11T01:44:31;102419.31;;;8.30;52.75
7264;BME280;3673;52.480;13.348;2023-02-11T01:46:59;102411.16;;;8.22;53.17
7264;BME280;3673;52.480;13.348;2023-02-11T01:49:28;102417.59;;;8.08;53.22
7264;BME280;3673;52.480;13.348;2023-02-11T01:52:01;102405.25;;;8.26;53.15
7264;BME280;3673;52.480;13.348;2023-02-11T01:54:34;102383.13;;;8.41;52.77
7264;BME280;3673;52.480;13.348;2023-02-11T01:57:23;102394.53;;;8.19;52.97
7264;BME280;3673;52.480;13.348;2023-02-11T02:00:00;102404.56;;;8.31;53.27
7264;BME280;3673;52.480;13.348;2023-02-11T02:02:33;102411.59;;;8.11;53.90
7264;BME280;3673;52.480;13.348;2023-02-11T02:05:09;102401.47;;;8.42;52.95
7264;BME280;3673;52.480;13.348;2023-02-11T02:07:48;102398.00;;;8.68;52.71
7264;BME280;3673;52.480;13.348;2023-02-11T02:10:23;102393.78;;;8.72;52.20
7264;BME280;3673;52.480;13.348;2023-02-11T02:12:52;102385.38;;;8.81;52.06
7264;BME280;3673;52.480;13.348;2023-02-11T02:15:31;102381.50;;;8.43;52.72
7264;BME280;3673;52.480;13.348;2023-02-11T02:18:07;102384.28;;;8.47;53.04
7264;BME280;3673;52.480;13.348;2023-02-11T02:21:40;102387.41;;;8.37;53.35
7264;BME280;3673;52.480;13.348;2023-02-11T02:25:05;102386.88;;;8.47;53.06
7264;BME280;3673;52.480;13.348;2023-02-11T02:27:49;102383.78;;;8.86;52.58
7264;BME280;3673;52.480;13.348;2023-02-11T02:30:45;102383.88;;;8.87;52.71
7264;BME280;3673;52.480;13.348;2023-02-11T02:33:28;102382.38;;;8.95;52.13
7264;BME280;3673;52.480;13.348;2023-02-11T02:36:08;102390.84;;;8.88;52.74
7264;BME280;3673;52.480;13.348;2023-02-11T02:38:46;102377.34;;;8.74;52.88
7264;BME280;3673;52.480;13.348;2023-02-11T02:41:16;102362.84;;;8.84;53.13
7264;BME280;3673;52.480;13.348;2023-02-11T02:43:48;102366.25;;;8.82;53.01
7264;BME280;3673;52.480;13.348;2023-02-11T02:46:19;102361.63;;;8.46;54.47
7264;BME280;3673;52.480;13.348;2023-02-11T02:48:49;102347.16;;;8.83;53.64
7264;BME280;3673;52.480;13.348;2023-02-11T02:55:28;102343.41;;;8.74;54.14
7264;BME280;3673;52.480;13.348;2023-02-11T02:58:15;102341.88;;;8.81;53.99
7264;BME280;3673;52.480;13.348;2023-02-11T03:00:53;102353.66;;;8.95;53.53
7264;BME280;3673;52.480;13.348;2023-02-11T03:03:33;102348.16;;;8.59;54.33
7264;BME280;3673;52.480;13.348;2023-02-11T03:06:06;102336.03;;;8.88;53.89
7264;BME280;3673;52.480;13.348;2023-02-11T03:08:39;102340.72;;;8.71;54.07
7264;BME280;3673;52.480;13.348;2023-02-11T03:11:07;102331.13;;;8.70;54.41
7264;BME280;3673;52.480;13.348;2023-02-11T03:13:38;102340.69;;;8.98;54.10
7264;BME280;3673;52.480;13.348;2023-02-11T03:16:08;102335.47;;;8.71;54.63
7264;BME280;3673;52.480;13.348;2023-02-11T03:18:40;102331.47;;;9.09;54.22
7264;BME280;3673;52.480;13.348;2023-02-11T03:21:10;102321.50;;;8.96;54.62
7264;BME280;3673;52.480;13.348;2023-02-11T03:23:42;102314.56;;;8.97;54.32
7264;BME280;3673;52.480;13.348;2023-02-11T03:26:16;102328.25;;;9.18;54.02
7264;BME280;3673;52.480;13.348;2023-02-11T03:28:50;102350.25;;;8.98;54.54
7264;BME280;3673;52.480;13.348;2023-02-11T03:31:26;102337.59;;;9.10;54.65
7264;BME280;3673;52.480;13.348;2023-02-11T03:33:59;102337.84;;;9.19;54.38
7264;BME280;3673;52.480;13.348;2023-02-11T03:36:34;102337.81;;;8.89;55.43
7264;BME280;3673;52.480;13.348;2023-02-11T03:39:04;102341.84;;;9.06;54.96
7264;BME280;3673;52.480;13.348;2023-02-11T03:41:32;102341.06;;;9.39;54.03
7264;BME280;3673;52.480;13.348;2023-02-11T03:44:00;102336.91;;;8.62;55.87
7264;BME280;3673;52.480;13.348;2023-02-11T03:46:31;102330.59;;;8.81;55.38
7264;BME280;3673;52.480;13.348;2023-02-11T03:49:03;102330.03;;;8.64;56.40
7264;BME280;3673;52.480;13.348;2023-02-11T03:51:34;102319.81;;;8.98;55.60
7264;BME280;3673;52.480;13.348;2023-02-11T03:54:06;102322.13;;;9.17;54.94
7264;BME280;3673;52.480;13.348;2023-02-11T03:56:40;102334.19;;;9.12;55.10
7264;BME280;3673;52.480;13.348;2023-02-11T03:59:10;102330.38;;;9.31;54.68
7264;BME280;3673;52.480;13.348;2023-02-11T04:01:37;102335.56;;;9.01;55.53
7264;BME280;3673;52.480;13.348;2023-02-11T04:04:04;102342.75;;;9.08;55.73
7264;BME280;3673;52.480;13.348;2023-02-11T04:06:33;102327.63;;;8.98;55.93
7264;BME280;3673;52.480;13.348;2023-02-11T04:09:00;102329.78;;;9.11;55.76
7264;BME280;3673;52.480;13.348;2023-02-11T04:11:27;102331.38;;;9.06;55.78
7264;BME280;3673;52.480;13.348;2023-02-11T04:13:53;102327.25;;;9.14;55.76
7264;BME280;3673;52.480;13.348;2023-02-11T04:16:20;102322.75;;;9.09;56.18
7264;BME280;3673;52.480;13.348;2023-02-11T04:18:47;102331.06;;;8.96;56.34
7264;BME280;3673;52.480;13.348;2023-02-11T04:21:14;102327.75;;;9.29;55.89
7264;BME280;3673;52.480;13.348;2023-02-11T04:23:42;102335.25;;;9.47;55.34
7264;BME280;3673;52.480;13.348;2023-02-11T04:26:08;102332.41;;;9.41;55.59
7264;BME280;3673;52.480;13.348;2023-02-11T04:28:35;102344.19;;;8.70;57.43
7264;BME280;3673;52.480;13.348;2023-02-11T04:31:02;102332.63;;;9.19;56.30
7264;BME280;3673;52.480;13.348;2023-02-11T04:33:29;102333.31;;;9.42;55.89
7264;BME280;3673;52.480;13.348;2023-02-11T04:35:56;102318.19;;;9.30;56.23
7264;BME280;3673;52.480;13.348;2023-02-11T04:38:22;102328.78;;;9.06;57.10
7264;BME280;3673;52.480;13.348;2023-02-11T04:40:50;102315.47;;;9.27;57.03
7264;BME280;3673;52.480;13.348;2023-02-11T04:43:17;102318.38;;;9.38;56.99
7264;BME280;3673;52.480;13.348;2023-02-11T04:45:44;102319.25;;;9.08;57.38
7264;BME280;3673;52.480;13.348;2023-02-11T04:48:11;102313.16;;;9.38;57.60
7264;BME280;3673;52.480;13.348;2023-02-11T04:50:37;102310.84;;;9.18;57.40
7264;BME280;3673;52.480;13.348;2023-02-11T04:53:04;102315.66;;;9.33;57.55
7264;BME280;3673;52.480;13.348;2023-02-11T04:55:31;102305.28;;;9.06;58.32
7264;BME280;3673;52.480;13.348;2023-02-11T04:57:59;102313.50;;;8.92;58.27
7264;BME280;3673;52.480;13.348;2023-02-11T05:00:26;102300.56;;;8.95;58.25
7264;BME280;3673;52.480;13.348;2023-02-11T05:02:53;102295.69;;;9.35;58.08
7264;BME280;3673;52.480;13.348;2023-02-11T05:05:19;102290.19;;;9.26;57.92
7264;BME280;3673;52.480;13.348;2023-02-11T05:07:46;102293.56;;;9.52;56.77
7264;BME280;3673;52.480;13.348;2023-02-11T05:10:13;102290.78;;;9.17;57.86
7264;BME280;3673;52.480;13.348;2023-02-11T05:12:39;102278.72;;;9.21;57.67
7264;BME280;3673;52.480;13.348;2023-02-11T05:15:08;102279.50;;;9.17;58.30
7264;BME280;3673;52.480;13.348;2023-02-11T05:17:35;102274.38;;;9.21;58.81
7264;BME280;3673;52.480;13.348;2023-02-11T05:20:02;102266.72;;;9.27;58.44
7264;BME280;3673;52.480;13.348;2023-02-11T05:22:29;102258.47;;;9.12;59.01
7264;BME280;3673;52.480;13.348;2023-02-11T05:24:56;102263.78;;;9.15;58.96
7264;BME280;3673;52.480;13.348;2023-02-11T05:27:22;102256.69;;;9.11;58.92
7264;BME280;3673;52.480;13.348;2023-02-11T05:29:49;102248.44;;;8.98;59.50
7264;BME280;3673;52.480;13.348;2023-02-11T05:32:17;102242.56;;;9.05;59.78
7264;BME280;3673;52.480;13.348;2023-02-11T05:34:44;102236.03;;;9.19;59.68
7264;BME280;3673;52.480;13.348;2023-02-11T05:37:11;102244.84;;;9.22;59.51
7264;BME280;3673;52.480;13.348;2023-02-11T05:39:38;102242.38;;;9.28;59.20
7264;BME280;3673;52.480;13.348;2023-02-11T05:42:05;102230.56;;;9.11;59.45
7264;BME280;3673;52.480;13.348;2023-02-11T05:44:32;102225.75;;;9.25;59.44
7264;BME280;3673;52.480;13.348;2023-02-11T05:46:58;102231.59;;;9.16;60.21
7264;BME280;3673;52.480;13.348;2023-02-11T05:49:26;102225.25;;;9.07;60.60
7264;BME280;3673;52.480;13.348;2023-02-11T05:51:53;102230.16;;;8.98;60.76
7264;BME280;3673;52.480;13.348;2023-02-11T05:54:20;102235.44;;;8.71;62.52
7264;BME280;3673;52.480;13.348;2023-02-11T05:56:46;102228.59;;;9.03;61.62
7264;BME280;3673;52.480;13.348;2023-02-11T05:59:13;102242.38;;;9.28;61.17
7264;BME280;3673;52.480;13.348;2023-02-11T06:01:41;102240.56;;;8.68;62.47
7264;BME280;3673;52.480;13.348;2023-02-11T06:04:08;102240.94;;;9.08;62.30
7264;BME280;3673;52.480;13.348;2023-02-11T06:06:36;102239.13;;;9.06;61.89
7264;BME280;3673;52.480;13.348;2023-02-11T06:09:03;102237.22;;;8.72;62.81
7264;BME280;3673;52.480;13.348;2023-02-11T06:11:30;102256.16;;;8.93;62.62
7264;BME280;3673;52.480;13.348;2023-02-11T06:13:57;102256.50;;;9.05;62.70
7264;BME280;3673;52.480;13.348;2023-02-11T06:16:24;102243.72;;;9.14;62.04
7264;BME280;3673;52.480;13.348;2023-02-11T06:18:51;102246.88;;;9.03;62.63
7264;BME280;3673;52.480;13.348;2023-02-11T06:21:18;102245.88;;;9.29;61.60
7264;BME280;3673;52.480;13.348;2023-02-11T06:23:46;102250.38;;;9.03;62.89
7264;BME280;3673;52.480;13.348;2023-02-11T06:26:18;102241.06;;;9.13;62.90
7264;BME280;3673;52.480;13.348;2023-02-11T06:28:45;102247.75;;;8.75;64.04
7264;BME280;3673;52.480;13.348;2023-02-11T06:31:13;102245.56;;;8.89;63.74
7264;BME280;3673;52.480;13.348;2023-02-11T06:33:40;102240.34;;;9.17;62.75
7264;BME280;3673;52.480;13.348;2023-02-11T06:36:13;102240.28;;;9.15;63.41
7264;BME280;3673;52.480;13.348;2023-02-11T06:38:41;102231.19;;;9.32;63.30
7264;BME280;3673;52.480;13.348;2023-02-11T06:41:11;102229.88;;;9.48;62.33
7264;BME280;3673;52.480;13.348;2023-02-11T06:43:38;102224.03;;;9.57;62.99
7264;BME280;3673;52.480;13.348;2023-02-11T06:46:06;102224.72;;;9.50;63.02
7264;BME280;3673;52.480;13.348;2023-02-11T06:48:34;102226.34;;;9.46;63.34
7264;BME280;3673;52.480;13.348;2023-02-11T06:51:02;102221.19;;;9.18;63.93
7264;BME280;3673;52.480;13.348;2023-02-11T06:53:30;102225.91;;;9.31;64.10
7264;BME280;3673;52.480;13.348;2023-02-11T06:56:02;102227.78;;;9.05;64.53
7264;BME280;3673;52.480;13.348;2023-02-11T06:58:31;102236.19;;;9.25;64.19
7264;BME280;3673;52.480;13.348;2023-02-11T07:00:58;102233.81;;;9.32;64.65
7264;BME280;3673;52.480;13.348;2023-02-11T07:03:25;102235.59;;;9.34;63.81
7264;BME280;3673;52.480;13.348;2023-02-11T07:05:52;102240.13;;;9.72;63.45
7264;BME280;3673;52.480;13.348;2023-02-11T07:08:19;102229.25;;;9.90;62.65
7264;BME280;3673;52.480;13.348;2023-02-11T07:10:46;102231.53;;;9.77;62.94
7264;BME280;3673;52.480;13.348;2023-02-11T07:13:13;102223.75;;;9.46;63.78
7264;BME280;3673;52.480;13.348;2023-02-11T07:15:41;102224.88;;;9.56;63.58
7264;BME280;3673;52.480;13.348;2023-02-11T07:18:08;102224.38;;;10.03;62.82
7264;BME280;3673;52.480;13.348;2023-02-11T07:20:36;102209.69;;;9.74;62.69
7264;BME280;3673;52.480;13.348;2023-02-11T07:23:04;102221.06;;;9.77;62.69
7264;BME280;3673;52.480;13.348;2023-02-11T07:25:31;102215.59;;;10.01;62.38
7264;BME280;3673;52.480;13.348;2023-02-11T07:27:58;102220.72;;;9.97;62.17
7264;BME280;3673;52.480;13.348;2023-02-11T07:30:25;102221.94;;;10.11;61.46
7264;BME280;3673;52.480;13.348;2023-02-11T07:32:53;102218.47;;;9.77;62.63
7264;BME280;3673;52.480;13.348;2023-02-11T07:35:20;102220.09;;;9.72;62.88
7264;BME280;3673;52.480;13.348;2023-02-11T07:37:46;102208.22;;;9.85;62.13
7264;BME280;3673;52.480;13.348;2023-02-11T07:40:13;102202.00;;;9.80;62.29
7264;BME280;3673;52.480;13.348;2023-02-11T07:42:40;102207.59;;;9.95;62.33
7264;BME280;3673;52.480;13.348;2023-02-11T07:45:08;102206.88;;;9.66;62.88
7264;BME280;3673;52.480;13.348;2023-02-11T07:47:35;102206.91;;;9.68;62.95
7264;BME280;3673;52.480;13.348;2023-02-11T07:50:05;102204.84;;;9.89;62.68
7264;BME280;3673;52.480;13.348;2023-02-11T07:52:32;102213.84;;;9.67;63.23
7264;BME280;3673;52.480;13.348;2023-02-11T07:55:00;102206.78;;;9.63;62.95
7264;BME280;3673;52.480;13.348;2023-02-11T07:57:27;102195.00;;;9.79;62.98
7264;BME280;3673;52.480;13.348;2023-02-11T07:59:54;102196.84;;;9.83;62.58
7264;BME280;3673;52.480;13.348;2023-02-11T08:02:21;102213.50;;;9.22;64.25
7264;BME280;3673;52.480;13.348;2023-02-11T08:04:48;102206.94;;;9.37;64.00
7264;BME280;3673;52.480;13.348;2023-02-11T08:07:17;102209.72;;;9.75;63.48
7264;BME280;3673;52.480;13.348;2023-02-11T08:09:44;102201.19;;;9.50;64.31
7264;BME280;3673;52.480;13.348;2023-02-11T08:12:11;102218.53;;;9.79;63.44
7264;BME280;3673;52.480;13.348;2023-02-11T08:14:39;102212.69;;;9.56;64.06
7264;BME280;3673;52.480;13.348;2023-02-11T08:17:08;102220.16;;;9.75;63.73
7264;BME280;3673;52.480;13.348;2023-02-11T08:19:35;102238.47;;;10.43;61.90
7264;BME280;3673;52.480;13.348;2023-02-11T08:22:02;102250.84;;;10.14;62.90
7264;BME280;3673;52.480;13.348;2023-02-11T08:24:31;102254.88;;;10.03;63.03
7264;BME280;3673;52.480;13.348;2023-02-11T08:26:57;102257.56;;;10.06;62.96
7264;BME280;3673;52.480;13.348;2023-02-11T08:29:24;102255.78;;;9.72;64.03
7264;BME280;3673;52.480;13.348;2023-02-11T08:31:51;102249.22;;;9.86;63.60
7264;BME280;3673;52.480;13.348;2023-02-11T08:34:18;102265.41;;;10.06;63.55
7264;BME280;3673;52.480;13.348;2023-02-11T08:36:46;102250.69;;;9.76;64.53
7264;BME280;3673;52.480;13.348;2023-02-11T08:39:15;102260.38;;;10.13;63.99
7264;BME280;3673;52.480;13.348;2023-02-11T08:41:45;102248.31;;;10.17;64.09
7264;BME280;3673;52.480;13.348;2023-02-11T08:44:13;102262.84;;;10.07;64.35
7264;BME280;3673;52.480;13.348;2023-02-11T08:46:40;102267.88;;;10.00;64.60
7264;BME280;3673;52.480;13.348;2023-02-11T08:49:07;102262.72;;;10.04;64.97
7264;BME280;3673;52.480;13.348;2023-02-11T08:51:34;102270.66;;;9.74;64.98
7264;BME280;3673;52.480;13.348;2023-02-11T08:54:01;102257.25;;;9.94;64.08
7264;BME280;3673;52.480;13.348;2023-02-11T08:56:28;102238.56;;;10.13;65.29
7264;BME280;3673;52.480;13.348;2023-02-11T08:58:59;102229.94;;;10.15;64.83
7264;BME280;3673;52.480;13.348;2023-02-11T09:01:28;102236.28;;;10.25;64.25
7264;BME280;3673;52.480;13.348;2023-02-11T09:03:56;102229.69;;;10.06;65.11
7264;BME280;3673;52.480;13.348;2023-02-11T09:06:25;102236.69;;;10.07;64.89
7264;BME280;3673;52.480;13.348;2023-02-11T09:08:54;102225.91;;;9.95;65.85
7264;BME280;3673;52.480;13.348;2023-02-11T09:11:27;102231.19;;;9.97;65.95
7264;BME280;3673;52.480;13.348;2023-02-11T09:13:54;102233.06;;;10.02;65.81
7264;BME280;3673;52.480;13.348;2023-02-11T09:16:25;102237.22;;;10.27;64.78
7264;BME280;3673;52.480;13.348;2023-02-11T09:18:55;102237.72;;;9.81;65.78
7264;BME280;3673;52.480;13.348;2023-02-11T09:21:22;102242.22;;;10.54;64.41
7264;BME280;3673;52.480;13.348;2023-02-11T09:23:49;102244.13;;;10.25;64.78
7264;BME280;3673;52.480;13.348;2023-02-11T09:26:19;102248.63;;;10.30;64.21
7264;BME280;3673;52.480;13.348;2023-02-11T09:28:47;102261.97;;;10.08;64.73
7264;BME280;3673;52.480;13.348;2023-02-11T09:31:17;102262.56;;;10.29;64.51
7264;BME280;3673;52.480;13.348;2023-02-11T09:33:49;102242.84;;;10.44;64.69
7264;BME280;3673;52.480;13.348;2023-02-11T09:36:18;102249.16;;;10.17;65.12
7264;BME280;3673;52.480;13.348;2023-02-11T09:38:46;102248.16;;;9.79;65.47
7264;BME280;3673;52.480;13.348;2023-02-11T09:44:19;102258.41;;;10.75;63.58
7264;BME280;3673;52.480;13.348;2023-02-11T09:46:53;102266.25;;;10.75;63.68
7264;BME280;3673;52.480;13.348;2023-02-11T09:49:28;102272.13;;;10.29;64.74
7264;BME280;3673;52.480;13.348;2023-02-11T09:52:02;102284.38;;;9.97;65.55
7264;BME280;3673;52.480;13.348;2023-02-11T09:54:35;102274.75;;;10.29;65.15
7264;BME280;3673;52.480;13.348;2023-02-11T09:57:03;102284.91;;;9.86;65.96
7264;BME280;3673;52.480;13.348;2023-02-11T09:59:31;102285.75;;;10.52;65.43
7264;BME280;3673;52.480;13.348;2023-02-11T10:02:01;102299.59;;;10.46;63.86
7264;BME280;3673;52.480;13.348;2023-02-11T10:04:48;102299.66;;;10.49;64.98
7264;BME280;3673;52.480;13.348;2023-02-11T10:07:23;102297.91;;;10.14;66.38
7264;BME280;3673;52.480;13.348;2023-02-11T10:10:03;102301.19;;;10.07;66.02
7264;BME280;3673;52.480;13.348;2023-02-11T10:12:49;102286.72;;;10.21;65.35
7264;BME280;3673;52.480;13.348;2023-02-11T10:15:27;102294.84;;;10.30;65.58
7264;BME280;3673;52.480;13.348;2023-02-11T10:18:44;102294.38;;;10.46;65.50
7264;BME280;3673;52.480;13.348;2023-02-11T10:21:20;102303.13;;;10.48;66.49
7264;BME280;3673;52.480;13.348;2023-02-11T10:23:53;102286.38;;;10.42;66.99
7264;BME280;3673;52.480;13.348;2023-02-11T10:26:22;102282.19;;;10.48;67.09
7264;BME280;3673;52.480;13.348;2023-02-11T10:28:52;102289.56;;;10.28;67.18
7264;BME280;3673;52.480;13.348;2023-02-11T10:31:23;102309.63;;;10.64;66.92
7264;BME280;3673;52.480;13.348;2023-02-11T10:33:56;102303.50;;;10.63;66.53
7264;BME280;3673;52.480;13.348;2023-02-11T10:36:28;102304.88;;;10.83;66.19
7264;BME280;3673;52.480;13.348;2023-02-11T10:38:56;102317.31;;;10.58;66.31
7264;BME280;3673;52.480;13.348;2023-02-11T10:41:30;102300.88;;;10.63;66.56
7264;BME280;3673;52.480;13.348;2023-02-11T10:43:59;102290.09;;;10.51;66.99
7264;BME280;3673;52.480;13.348;2023-02-11T10:46:31;102286.47;;;10.82;66.16
7264;BME280;3673;52.480;13.348;2023-02-11T10:48:59;102277.06;;;10.53;66.68
7264;BME280;3673;52.480;13.348;2023-02-11T10:51:29;102271.50;;;10.39;66.89
7264;BME280;3673;52.480;13.348;2023-02-11T10:54:13;102274.22;;;10.79;66.04
7264;BME280;3673;52.480;13.348;2023-02-11T10:56:46;102276.53;;;9.99;68.00
7264;BME280;3673;52.480;13.348;2023-02-11T10:59:20;102289.00;;;10.09;68.49
7264;BME280;3673;52.480;13.348;2023-02-11T11:01:55;102287.69;;;10.24;68.87
7264;BME280;3673;52.480;13.348;2023-02-11T11:04:37;102274.19;;;10.42;69.02
7264;BME280;3673;52.480;13.348;2023-02-11T11:07:19;102261.19;;;10.45;68.70
7264;BME280;3673;52.480;13.348;2023-02-11T11:09:51;102253.63;;;10.21;68.68
7264;BME280;3673;52.480;13.348;2023-02-11T11:12:29;102261.38;;;10.53;68.51
7264;BME280;3673;52.480;13.348;2023-02-11T11:14:59;102268.69;;;9.99;69.82
7264;BME280;3673;52.480;13.348;2023-02-11T11:17:26;102270.00;;;10.14;69.83
7264;BME280;3673;52.480;13.348;2023-02-11T11:20:14;102275.41;;;10.56;69.08
7264;BME280;3673;52.480;13.348;2023-02-11T11:22:43;102271.66;;;10.45;69.38
7264;BME280;3673;52.480;13.348;2023-02-11T11:25:22;102261.78;;;10.33;69.30
7264;BME280;3673;52.480;13.348;2023-02-11T11:27:50;102260.75;;;10.64;68.47
7264;BME280;3673;52.480;13.348;2023-02-11T11:30:20;102255.06;;;10.82;68.57
7264;BME280;3673;52.480;13.348;2023-02-11T11:32:48;102257.97;;;10.21;68.80
7264;BME280;3673;52.480;13.348;2023-02-11T11:35:25;102255.31;;;10.19;70.24
7264;BME280;3673;52.480;13.348;2023-02-11T11:38:00;102262.69;;;11.10;68.03
7264;BME280;3673;52.480;13.348;2023-02-11T11:40:29;102281.53;;;10.57;69.25
7264;BME280;3673;52.480;13.348;2023-02-11T11:43:08;102277.63;;;10.40;69.56
7264;BME280;3673;52.480;13.348;2023-02-11T11:45:53;102264.13;;;10.23;70.10
7264;BME280;3673;52.480;13.348;2023-02-11T11:48:28;102263.63;;;10.05;70.26
7264;BME280;3673;52.480;13.348;2023-02-11T11:51:00;102273.84;;;10.64;69.24
7264;BME280;3673;52.480;13.348;2023-02-11T11:53:35;102283.09;;;10.88;68.46
7264;BME280;3673;52.480;13.348;2023-02-11T11:56:08;102284.81;;;10.48;69.63
7264;BME280;3673;52.480;13.348;2023-02-11T11:58:37;102275.00;;;10.40;69.15
7264;BME280;3673;52.480;13.348;2023-02-11T12:01:19;102267.97;;;10.74;69.28
7264;BME280;3673;52.480;13.348;2023-02-11T12:04:16;102262.03;;;10.44;70.61
7264;BME280;3673;52.480;13.348;2023-02-11T12:07:04;102268.53;;;10.61;69.07
7264;BME280;3673;52.480;13.348;2023-02-11T12:09:51;102265.94;;;11.41;67.23
7264;BME280;3673;52.480;13.348;2023-02-11T12:12:35;102270.81;;;10.83;68.24
7264;BME280;3673;52.480;13.348;2023-02-11T12:15:19;102247.19;;;10.80;68.96
7264;BME280;3673;52.480;13.348;2023-02-11T12:18:08;102240.44;;;10.90;67.59
7264;BME280;3673;52.480;13.348;2023-02-11T12:20:51;102250.47;;;10.70;69.68
7264;BME280;3673;52.480;13.348;2023-02-11T12:23:37;102250.06;;;11.34;67.81
7264;BME280;3673;52.480;13.348;2023-02-11T12:26:14;102259.00;;;11.01;67.82
7264;BME280;3673;52.480;13.348;2023-02-11T12:28:57;102253.91;;;10.69;68.62
7264;BME280;3673;52.480;13.348;2023-02-11T12:31:42;102262.97;;;10.85;67.96
7264;BME280;3673;52.480;13.348;2023-02-11T12:34:47;102266.88;;;10.65;69.44
7264;BME280;3673;52.480;13.348;2023-02-11T12:37:32;102266.81;;;10.60;69.38
7264;BME280;3673;52.480;13.348;2023-02-11T12:40:13;102271.66;;;10.82;68.85
7264;BME280;3673;52.480;13.348;2023-02-11T12:42:59;102264.00;;;10.92;68.87
7264;BME280;3673;52.480;13.348;2023-02-11T12:45:57;102248.44;;;11.40;67.77
7264;BME280;3673;52.480;13.348;2023-02-11T12:48:41;102255.84;;;10.78;69.37
7264;BME280;3673;52.480;13.348;2023-02-11T12:51:23;102253.91;;;11.08;67.83
7264;BME280;3673;52.480;13.348;2023-02-11T12:54:14;102253.28;;;11.21;68.08
7264;BME280;3673;52.480;13.348;2023-02-11T12:56:47;102265.28;;;10.71;68.21
7264;BME280;3673;52.480;13.348;2023-02-11T13:02:26;102254.97;;;11.60;67.21
7264;BME280;3673;52.480;13.348;2023-02-11T13:04:59;102259.78;;;10.98;68.18
7264;BME280;3673;52.480;13.348;2023-02-11T13:07:32;102261.69;;;11.05;68.74
7264;BME280;3673;52.480;13.348;2023-02-11T13:10:22;102285.00;;;10.95;68.53
7264;BME280;3673;52.480;13.348;2023-02-11T13:12:51;102273.22;;;11.13;68.80
7264;BME280;3673;52.480;13.348;2023-02-11T13:15:39;102280.78;;;11.00;69.46
7264;BME280;3673;52.480;13.348;2023-02-11T13:21:24;102266.75;;;10.98;69.48
7264;BME280;3673;52.480;13.348;2023-02-11T13:24:00;102273.72;;;11.37;68.52
7264;BME280;3673;52.480;13.348;2023-02-11T13:26:39;102271.69;;;11.24;68.00
7264;BME280;3673;52.480;13.348;2023-02-11T13:29:22;102270.25;;;11.37;69.04
7264;BME280;3673;52.480;13.348;2023-02-11T13:31:54;102281.69;;;11.02;68.83
7264;BME280;3673;52.480;13.348;2023-02-11T13:34:33;102290.09;;;11.26;67.85
7264;BME280;3673;52.480;13.348;2023-02-11T13:37:20;102297.66;;;11.12;68.94
7264;BME280;3673;52.480;13.348;2023-02-11T13:39:58;102296.91;;;11.60;68.14
7264;BME280;3673;52.480;13.348;2023-02-11T13:42:26;102307.88;;;11.41;67.23
7264;BME280;3673;52.480;13.348;2023-02-11T13:44:53;102312.78;;;11.25;68.77